createdAt,value
2019-04-14T00:00:35.840Z,0.73
2019-04-14T00:05:38.531Z,0.67
2019-04-14T00:10:40.500Z,0.60
2019-04-14T00:15:46.741Z,0.58
2019-04-14T00:20:45.463Z,0.55
2019-04-14T00:25:47.651Z,0.49
2019-04-14T00:30:49.711Z,0.42
2019-04-14T00:35:52.052Z,0.36
2019-04-14T00:40:54.068Z,0.33
2019-04-14T00:45:58.030Z,0.31
2019-04-14T00:50:59.014Z,0.38
2019-04-14T00:56:01.952Z,0.40
2019-04-14T01:01:04.822Z,0.41
2019-04-14T01:06:07.673Z,0.41
2019-04-14T01:11:09.619Z,0.41
2019-04-14T01:16:15.384Z,0.42
2019-04-14T01:21:15.350Z,0.41
2019-04-14T01:26:18.111Z,0.41
2019-04-14T01:31:20.824Z,0.40
2019-04-14T01:36:23.482Z,0.37
2019-04-14T01:41:26.090Z,0.29
2019-04-14T01:46:30.964Z,0.23
2019-04-14T01:51:31.489Z,0.19
2019-04-14T01:56:34.101Z,0.13
2019-04-14T02:01:36.737Z,0.10
2019-04-14T02:06:39.800Z,0.09
2019-04-14T02:11:42.364Z,0.07
2019-04-14T02:16:49.829Z,0.05
2019-04-14T02:21:47.796Z,0.05
2019-04-14T02:26:50.300Z,0.04
2019-04-14T02:32:19.909Z,0.03
2019-04-14T02:37:28.277Z,-0.01
2019-04-14T02:42:34.206Z,-0.01
2019-04-14T02:47:48.785Z,-0.02
2019-04-14T03:02:38.879Z,-0.08
2019-04-14T03:07:45.742Z,-0.10
2019-04-14T03:12:49.200Z,-0.11
2019-04-14T03:18:14.178Z,-0.12
2019-04-14T03:22:53.478Z,-0.14
2019-04-14T03:28:08.695Z,-0.16
2019-04-14T03:33:39.569Z,-0.17
2019-04-14T03:43:15.387Z,-0.18
2019-04-14T03:53:26.299Z,-0.19
2019-04-14T03:57:52.546Z,-0.20
2019-04-14T04:02:54.058Z,-0.23
2019-04-14T04:07:56.082Z,-0.24
2019-04-14T04:12:57.955Z,-0.23
2019-04-14T04:18:00.273Z,-0.23
2019-04-14T04:23:03.010Z,-0.26
2019-04-14T04:28:05.893Z,-0.30
2019-04-14T04:33:08.611Z,-0.33
2019-04-14T04:38:11.773Z,-0.36
2019-04-14T04:43:14.616Z,-0.36
2019-04-14T04:48:17.402Z,-0.37
2019-04-14T04:53:20.090Z,-0.36
2019-04-14T04:58:21.725Z,-0.37
2019-04-14T05:03:23.443Z,-0.39
2019-04-14T05:08:26.201Z,-0.39
2019-04-14T05:13:29.114Z,-0.38
2019-04-14T05:18:31.338Z,-0.30
2019-04-14T05:23:34.137Z,0.02
2019-04-14T05:28:35.925Z,0.27
2019-04-14T05:33:38.304Z,0.45
2019-04-14T05:38:40.818Z,0.56
2019-04-14T05:43:48.776Z,0.73
2019-04-14T05:48:47.018Z,0.97
2019-04-14T05:53:48.688Z,1.22
2019-04-14T05:58:51.431Z,1.36
2019-04-14T06:03:53.946Z,1.56
2019-04-14T06:08:55.705Z,1.81
2019-04-14T06:13:57.240Z,2.06
2019-04-14T06:18:59.498Z,2.16
2019-04-14T06:24:01.380Z,2.28
2019-04-14T06:29:02.929Z,2.41
2019-04-14T06:34:07.200Z,2.58
2019-04-14T06:39:08.765Z,2.87
2019-04-14T06:44:10.274Z,3.06
2019-04-14T06:49:12.905Z,3.26
2019-04-14T06:54:14.584Z,3.44
2019-04-14T06:59:16.116Z,3.51
2019-04-14T07:04:18.504Z,3.39
2019-04-14T07:09:20.054Z,3.59
2019-04-14T07:14:21.947Z,3.86
2019-04-14T07:19:23.464Z,3.83
2019-04-14T07:24:24.994Z,3.69
2019-04-14T07:29:26.501Z,3.73
2019-04-14T07:34:28.447Z,3.93
2019-04-14T07:39:29.952Z,4.05
2019-04-14T07:44:31.487Z,4.08
2019-04-14T07:49:32.999Z,4.18
2019-04-14T07:54:34.858Z,4.37
2019-04-14T07:59:39.662Z,4.47
2019-04-14T08:04:41.193Z,4.43
2019-04-14T08:09:42.710Z,4.56
2019-04-14T08:14:44.727Z,4.55
2019-04-14T08:19:46.277Z,4.61
2019-04-14T08:24:48.145Z,4.99
2019-04-14T08:29:50.256Z,5.37
2019-04-14T08:34:51.895Z,5.70
2019-04-14T08:39:53.875Z,5.81
2019-04-14T08:44:55.404Z,5.76
2019-04-14T08:49:56.949Z,5.74
2019-04-14T08:54:58.509Z,5.99
2019-04-14T09:00:00.484Z,6.61
2019-04-14T09:05:02.037Z,6.92
2019-04-14T09:10:04.141Z,7.01
2019-04-14T09:15:06.033Z,7.36
2019-04-14T09:20:07.646Z,7.23
2019-04-14T09:25:09.238Z,7.45
2019-04-14T09:30:10.807Z,7.61
2019-04-14T09:35:13.452Z,7.50
2019-04-14T09:40:14.973Z,7.52
2019-04-14T09:45:16.497Z,7.96
2019-04-14T09:50:18.014Z,8.23
2019-04-14T09:55:19.963Z,8.31
2019-04-14T10:00:21.538Z,8.33
2019-04-14T10:05:23.115Z,8.74
2019-04-14T10:10:24.800Z,8.94
2019-04-14T10:15:27.226Z,9.21
2019-04-14T10:20:28.776Z,9.53
2019-04-14T10:25:30.612Z,9.62
2019-04-14T10:30:32.472Z,9.94
2019-04-14T10:35:37.465Z,10.41
2019-04-14T10:40:39.279Z,11.09
2019-04-14T10:45:41.168Z,11.23
2019-04-14T10:50:43.570Z,11.45
2019-04-14T10:55:45.092Z,11.47
2019-04-14T11:00:46.693Z,11.99
2019-04-14T11:05:48.229Z,12.30
2019-04-14T11:10:49.786Z,12.92
2019-04-14T11:15:51.393Z,12.91
2019-04-14T11:20:52.957Z,13.25
2019-04-14T11:25:54.794Z,13.28
2019-04-14T11:30:56.372Z,12.93
2019-04-14T11:35:57.895Z,12.73
2019-04-14T11:40:59.948Z,12.83
2019-04-14T11:46:03.590Z,13.21
2019-04-14T11:51:04.972Z,13.49
2019-04-14T11:56:06.594Z,13.42
2019-04-14T12:01:08.148Z,13.28
2019-04-14T12:06:10.043Z,13.21
2019-04-14T12:11:11.589Z,13.30
2019-04-14T12:16:13.141Z,13.37
2019-04-14T12:21:14.693Z,13.59
2019-04-14T12:26:16.349Z,13.75
2019-04-14T12:31:17.922Z,14.08
2019-04-14T12:36:19.470Z,14.28
2019-04-14T12:41:22.033Z,14.34
2019-04-14T12:46:24.016Z,14.34
2019-04-14T12:51:26.221Z,14.42
2019-04-14T12:56:27.933Z,13.88
2019-04-14T13:01:29.537Z,14.23
2019-04-14T13:06:31.061Z,14.50
2019-04-14T13:11:32.796Z,14.35
2019-04-14T13:16:34.641Z,14.52
2019-04-14T13:21:36.591Z,14.77
2019-04-14T13:26:38.507Z,14.88
2019-04-14T13:31:40.087Z,14.97
2019-04-14T13:36:41.612Z,14.94
2019-04-14T13:41:43.164Z,15.10
2019-04-14T13:46:44.700Z,15.14
2019-04-14T13:51:46.268Z,15.26
2019-04-14T13:56:48.262Z,15.50
2019-04-14T14:01:49.831Z,15.41
2019-04-14T14:06:51.368Z,15.55
2019-04-14T14:11:53.282Z,15.78
2019-04-14T14:16:54.782Z,15.97
2019-04-14T14:21:56.592Z,16.29
2019-04-14T14:26:58.808Z,16.63
2019-04-14T14:32:00.709Z,17.08
2019-04-14T14:37:03.054Z,16.79
2019-04-14T14:42:05.002Z,16.58
2019-04-14T14:47:07.299Z,16.33
2019-04-14T14:52:09.540Z,15.69
2019-04-14T14:57:11.431Z,15.30
2019-04-14T15:02:12.974Z,15.30
2019-04-14T15:07:15.059Z,15.03
2019-04-14T15:12:16.841Z,15.05
2019-04-14T15:17:19.510Z,15.14
2019-04-14T15:22:21.649Z,15.28
2019-04-14T15:27:23.484Z,14.30
2019-04-14T15:32:25.453Z,14.15
2019-04-14T15:37:26.959Z,14.62
2019-04-14T15:42:28.583Z,14.98
2019-04-14T15:47:30.170Z,15.04
2019-04-14T15:52:31.802Z,15.04
2019-04-14T15:57:33.393Z,14.88
2019-04-14T16:02:34.983Z,14.67
2019-04-14T16:07:36.509Z,14.56
2019-04-14T16:12:38.149Z,14.99
2019-04-14T16:17:39.729Z,15.30
2019-04-14T16:22:41.302Z,15.14
2019-04-14T16:27:42.851Z,14.96
2019-04-14T16:32:44.552Z,14.92
2019-04-14T16:37:46.627Z,14.99
2019-04-14T16:42:48.205Z,15.00
2019-04-14T16:47:50.111Z,15.13
2019-04-14T16:52:51.673Z,14.60
2019-04-14T16:57:53.206Z,14.29
2019-04-14T17:02:54.942Z,14.21
2019-04-14T17:07:56.525Z,14.33
2019-04-14T17:12:58.080Z,14.79
2019-04-14T17:18:02.409Z,15.09
2019-04-14T17:23:03.934Z,14.86
2019-04-14T17:28:05.550Z,14.59
2019-04-14T17:33:07.111Z,14.30
2019-04-14T17:38:08.666Z,14.15
2019-04-14T17:43:10.288Z,14.05
2019-04-14T17:48:12.162Z,13.87
2019-04-14T17:53:13.739Z,13.92
2019-04-14T17:58:15.669Z,13.74
2019-04-14T18:03:17.786Z,13.51
2019-04-14T18:08:19.396Z,13.25
2019-04-14T18:13:20.929Z,12.83
2019-04-14T18:18:22.509Z,12.48
2019-04-14T18:23:24.129Z,12.12
2019-04-14T18:28:25.691Z,11.94
2019-04-14T18:33:27.337Z,11.84
2019-04-14T18:38:28.899Z,11.78
2019-04-14T18:43:30.475Z,11.63
2019-04-14T18:48:32.334Z,11.54
2019-04-14T18:53:33.924Z,11.43
2019-04-14T18:58:36.021Z,11.40
2019-04-14T19:03:37.842Z,11.17
2019-04-14T19:08:39.598Z,10.94
2019-04-14T19:13:41.714Z,10.60
2019-04-14T19:18:43.580Z,10.39
2019-04-14T19:23:46.599Z,10.29
2019-04-14T19:28:48.508Z,10.22
2019-04-14T19:33:50.062Z,10.14
2019-04-14T19:38:51.653Z,9.96
2019-04-14T19:43:53.175Z,9.67
2019-04-14T19:48:54.859Z,9.39
2019-04-14T19:53:56.562Z,9.12
2019-04-14T19:58:58.097Z,8.90
2019-04-14T20:03:59.722Z,8.68
2019-04-14T20:09:01.255Z,8.55
2019-04-14T20:14:02.899Z,8.40
2019-04-14T20:19:10.368Z,8.23
2019-04-14T20:24:08.775Z,8.07
2019-04-14T20:29:10.347Z,7.90
2019-04-14T20:34:11.924Z,7.79
2019-04-14T20:39:13.569Z,7.65
2019-04-14T20:44:15.439Z,7.52
2019-04-14T20:49:17.069Z,7.34
2019-04-14T20:54:18.604Z,7.23
2019-04-14T20:59:20.155Z,7.12
2019-04-14T21:04:22.028Z,6.94
2019-04-14T21:09:23.578Z,6.86
2019-04-14T21:14:25.316Z,6.78
2019-04-14T21:19:26.888Z,6.66
2019-04-14T21:24:28.536Z,6.59
2019-04-14T21:29:30.086Z,6.51
2019-04-14T21:34:31.657Z,6.46
2019-04-14T21:39:33.221Z,6.40
2019-04-14T21:44:34.813Z,6.34
2019-04-14T21:49:36.990Z,6.22
2019-04-14T21:54:38.580Z,6.09
2019-04-14T21:59:40.201Z,6.03
2019-04-14T22:04:42.076Z,6.00
2019-04-14T22:09:43.605Z,5.98
2019-04-14T22:14:45.715Z,5.90
2019-04-14T22:19:47.276Z,5.97
2019-04-14T22:24:48.934Z,6.08
2019-04-14T22:29:50.529Z,6.23
2019-04-14T22:34:52.188Z,6.30
2019-04-14T22:39:53.986Z,6.34
2019-04-14T22:44:55.602Z,6.39
2019-04-14T22:49:57.874Z,6.47
2019-04-14T22:54:59.365Z,6.56
2019-04-14T23:00:00.967Z,6.63
2019-04-14T23:05:02.528Z,6.64
2019-04-14T23:10:04.106Z,6.65
2019-04-14T23:15:05.968Z,6.63
2019-04-14T23:20:07.563Z,6.65
2019-04-14T23:25:09.150Z,6.70
2019-04-14T23:30:10.648Z,6.71
2019-04-14T23:35:12.163Z,6.62
2019-04-14T23:40:13.676Z,6.58
2019-04-14T23:45:15.188Z,6.54
2019-04-14T23:50:16.706Z,6.42
2019-04-14T23:55:18.551Z,6.35
